• Join FlightAware (Why Join?)
  • Login
  • US Flag 
07:08AM EST


 

Airport Tracker/Info


-or-


 

Live Flight TrackerFlight Track Log ✈ C-GFSG ✈ 23-Jun-2013 ✈ CYVC - CYPA

Flight Track Log - Related Links

Times and Time Zones

All times are in EDT time to prevent confusion due to time zone crossing. See the C-GFSG flight status page for this flight to view local times or setup timezone preferences in your user account.

Time Position Orientation Groundspeed Altitude Reporting Facility
EDT Latitude Longitude Course Direction KTS MPH feet Rate Location/Type
07:29PM 55.1500 -105.3167 190° South 160 184 4,300  Level Winnipeg Center
07:30PM 55.1000 -105.3167 180° South 160 184 6,100 1,800 Climbing Winnipeg Center
07:31PM 55.0667 -105.3000 164° South 170 196 8,000 1,980 Climbing Winnipeg Center
07:32PM 55.0167 -105.3333 201° Southwest 170 196 10,100 1,920 Climbing Winnipeg Center
07:33PM 54.9667 -105.3500 191° South 170 196 11,900 1,800 Climbing Winnipeg Center
07:34PM 54.7926 -105.3301 184° South  Level FlightAware Approximate
07:34PM 54.9167 -105.3333 169° South 170 196 13,700  Level Winnipeg Center
07:35PM 54.7333 -105.3434 190° South  Level FlightAware Approximate
07:35PM 54.8667 -105.3500 191° South 170 196 15,000  Level Winnipeg Center
07:36PM 54.8167 -105.3667 191° South 210 242 15,000  Level Winnipeg Center
07:37PM 54.7500 -105.3833 188° South 250 288 15,000  Level Winnipeg Center
07:38PM 54.6667 -105.4000 187° South 260 299 15,000  Level Winnipeg Center
07:39PM 54.6000 -105.4167 188° South 270 311 15,000  Level Winnipeg Center
07:40PM 54.5333 -105.4333 188° South 270 311 15,000  Level Winnipeg Center
07:41PM 54.4500 -105.4500 187° South 260 299 15,000  Level Winnipeg Center
07:42PM 54.3667 -105.4500 180° South 260 299 15,000  Level Winnipeg Center
07:43PM 54.3000 -105.4667 188° South 260 299 15,000  Level Winnipeg Center
07:44PM 54.2333 -105.4833 188° South 260 299 15,000  Level Winnipeg Center
07:45PM 54.1667 -105.5000 188° South 260 299 15,000  Level Winnipeg Center
07:46PM 54.0833 -105.5167 187° South 260 299 15,000  Level Winnipeg Center
07:47PM 54.0167 -105.5333 188° South 260 299 15,100 -300 Climbing Winnipeg Center
07:48PM 53.9333 -105.5333 180° South 270 311 14,400 -1,200 Descending Winnipeg Center
07:49PM 53.8667 -105.5833 204° Southwest 280 322 12,800 -1,740 Descending Winnipeg Center
07:50PM 53.7667 -105.5833 180° South 300 345 11,000 -1,740 Descending Winnipeg Center
07:51PM 53.6833 -105.6000 187° South 290 334 9,400 -1,560 Descending Winnipeg Center
07:52PM 53.6167 -105.6167 188° South 290 334 7,900 -1,200 Descending Winnipeg Center
07:53PM 53.5333 -105.6333 187° South 280 322 7,000 -900 Descending Winnipeg Center
07:56PM 53.4106 -105.6333 180° South  Level FlightAware Approximate
08:03PM 53.2142 -105.6728 180° South  Level Estimated
08:04PM 53.2142 -105.6728 180° South  Level Estimated
08:05PM 53.2142 -105.6728 180° South  Level Estimated
08:06PM 53.2142 -105.6728 180° South  Level Estimated